createdAt,value
2023-04-20T00:01:04.898Z,3.20
2023-04-20T00:03:33.011Z,2.70
2023-04-20T00:06:03.215Z,2.77
2023-04-20T00:08:30.055Z,2.97
2023-04-20T00:10:56.784Z,3.40
2023-04-20T00:13:23.562Z,2.73
2023-04-20T00:15:50.481Z,3.03
2023-04-20T00:18:17.235Z,2.70
2023-04-20T00:20:43.993Z,2.80
2023-04-20T00:23:11.374Z,3.50
2023-04-20T00:25:38.276Z,3.07
2023-04-20T00:28:05.866Z,3.20
2023-04-20T00:30:32.681Z,2.77
2023-04-20T00:32:59.716Z,2.63
2023-04-20T00:35:26.574Z,2.90
2023-04-20T00:37:53.360Z,2.83
2023-04-20T00:40:20.660Z,3.10
2023-04-20T00:42:47.540Z,3.20
2023-04-20T00:45:14.359Z,2.90
2023-04-20T00:47:41.185Z,3.10
2023-04-20T00:50:08.819Z,3.00
2023-04-20T00:52:35.765Z,3.07
2023-04-20T00:55:04.385Z,3.07
2023-04-20T00:57:32.525Z,3.10
2023-04-20T00:59:59.481Z,2.87
2023-04-20T01:02:27.676Z,3.10
2023-04-20T01:04:54.696Z,3.10
2023-04-20T01:07:21.445Z,3.10
2023-04-20T01:09:48.138Z,2.97
2023-04-20T01:12:14.890Z,3.00
2023-04-20T01:14:41.910Z,3.27
2023-04-20T01:17:09.695Z,3.23
2023-04-20T01:19:36.440Z,2.60
2023-04-20T01:22:03.242Z,2.73
2023-04-20T01:24:30.231Z,3.10
2023-04-20T01:26:57.640Z,3.00
2023-04-20T01:29:24.432Z,3.07
2023-04-20T01:31:51.836Z,3.23
2023-04-20T01:34:18.620Z,2.90
2023-04-20T01:36:45.851Z,2.90
2023-04-20T01:39:12.741Z,3.33
2023-04-20T01:41:40.635Z,3.00
2023-04-20T01:44:07.767Z,3.27
2023-04-20T01:46:38.698Z,2.97
2023-04-20T01:49:06.226Z,3.03
2023-04-20T01:51:34.940Z,3.00
2023-04-20T01:54:02.658Z,3.20
2023-04-20T01:56:30.007Z,2.90
2023-04-20T01:58:56.734Z,3.53
2023-04-20T02:01:29.597Z,3.07
2023-04-20T02:03:56.398Z,3.20
2023-04-20T02:06:23.204Z,3.13
2023-04-20T02:08:50.088Z,3.27
2023-04-20T02:11:16.863Z,3.20
2023-04-20T02:13:43.715Z,3.00
2023-04-20T02:16:10.834Z,3.00
2023-04-20T02:18:37.583Z,3.13
2023-04-20T02:21:06.648Z,3.40
2023-04-20T02:23:33.330Z,3.10
2023-04-20T02:26:00.150Z,3.63
2023-04-20T02:28:26.842Z,4.03
2023-04-20T02:30:53.661Z,3.40
2023-04-20T02:33:21.877Z,3.40
2023-04-20T02:35:48.977Z,3.20
2023-04-20T02:38:15.975Z,2.97
2023-04-20T02:40:42.793Z,3.57
2023-04-20T02:43:09.711Z,3.53
2023-04-20T02:45:37.016Z,4.33
2023-04-20T02:48:04.126Z,4.17
2023-04-20T02:50:31.154Z,4.70
2023-04-20T02:52:58.246Z,3.87
2023-04-20T02:55:25.010Z,3.57
2023-04-20T02:57:51.695Z,3.70
2023-04-20T03:00:19.130Z,3.67
2023-04-20T03:02:47.006Z,3.67
2023-04-20T03:05:14.079Z,3.67
2023-04-20T03:07:41.008Z,4.00
2023-04-20T03:10:08.584Z,4.20
2023-04-20T03:12:36.162Z,4.07
2023-04-20T03:15:06.342Z,3.50
2023-04-20T03:17:33.072Z,3.90
2023-04-20T03:20:00.283Z,3.80
2023-04-20T03:22:27.117Z,4.07
2023-04-20T03:24:54.095Z,4.57
2023-04-20T03:27:21.021Z,4.37
2023-04-20T03:29:48.926Z,4.07
2023-04-20T03:32:15.797Z,4.40
2023-04-20T03:34:42.995Z,4.10
2023-04-20T03:37:09.816Z,3.67
2023-04-20T03:39:36.598Z,4.03
2023-04-20T03:42:06.380Z,4.37
2023-04-20T03:44:33.271Z,3.90
2023-04-20T03:46:59.993Z,4.37
2023-04-20T03:49:29.639Z,4.43
2023-04-20T03:51:56.508Z,4.33
2023-04-20T03:54:23.250Z,4.13
2023-04-20T03:56:50.538Z,4.20
2023-04-20T03:59:17.784Z,4.07
2023-04-20T04:01:44.819Z,4.47
2023-04-20T04:04:11.879Z,4.20
2023-04-20T04:06:39.060Z,4.40
2023-04-20T04:09:06.120Z,3.77
2023-04-20T04:11:33.062Z,3.40
2023-04-20T04:13:59.952Z,4.27
2023-04-20T04:16:26.852Z,4.10
2023-04-20T04:18:53.860Z,4.00
2023-04-20T04:21:21.115Z,3.97
2023-04-20T04:23:48.799Z,3.97
2023-04-20T04:26:15.733Z,3.83
2023-04-20T04:28:42.670Z,3.83
2023-04-20T04:31:09.908Z,3.70
2023-04-20T04:33:36.899Z,3.80
2023-04-20T04:36:04.643Z,4.23
2023-04-20T04:38:33.567Z,3.63
2023-04-20T04:41:00.858Z,4.57
2023-04-20T04:43:27.664Z,4.50
2023-04-20T04:45:55.648Z,4.43
2023-04-20T04:48:23.260Z,4.90
2023-04-20T04:50:50.276Z,4.60
2023-04-20T04:53:17.500Z,4.37
2023-04-20T04:55:44.404Z,4.93
2023-04-20T04:58:11.578Z,4.47
2023-04-20T05:00:38.400Z,4.47
2023-04-20T05:03:06.147Z,4.13
2023-04-20T05:05:33.507Z,4.27
2023-04-20T05:08:00.550Z,4.47
2023-04-20T05:10:27.862Z,4.33
2023-04-20T05:12:54.859Z,4.50
2023-04-20T05:15:22.639Z,4.23
2023-04-20T05:17:50.251Z,4.30
2023-04-20T05:20:17.371Z,4.70
2023-04-20T05:22:44.311Z,4.40
2023-04-20T05:25:14.653Z,4.53
2023-04-20T05:28:01.980Z,4.07
2023-04-20T05:30:29.311Z,4.60
2023-04-20T05:32:56.575Z,4.63
2023-04-20T05:35:23.479Z,4.47
2023-04-20T05:37:53.275Z,4.80
2023-04-20T05:40:20.114Z,4.53
2023-04-20T05:42:47.024Z,4.60
2023-04-20T05:45:17.055Z,5.10
2023-04-20T05:47:56.425Z,4.77
2023-04-20T05:50:24.723Z,4.60
2023-04-20T05:52:54.527Z,4.87
2023-04-20T05:55:22.902Z,4.30
2023-04-20T05:57:51.854Z,4.47
2023-04-20T06:00:26.282Z,4.70
2023-04-20T06:02:55.048Z,5.20
2023-04-20T06:05:22.476Z,5.33
2023-04-20T06:07:49.791Z,4.80
2023-04-20T06:10:16.761Z,3.90
2023-04-20T06:12:43.680Z,5.20
2023-04-20T06:15:11.053Z,5.10
2023-04-20T06:17:41.135Z,4.77
2023-04-20T06:20:09.894Z,5.10
2023-04-20T06:22:41.752Z,5.23
2023-04-20T06:25:09.021Z,4.50
2023-04-20T06:27:43.517Z,4.73
2023-04-20T06:30:11.083Z,5.37
2023-04-20T06:32:38.186Z,4.57
2023-04-20T06:35:06.766Z,4.87
2023-04-20T06:37:34.841Z,4.90
2023-04-20T06:40:01.649Z,5.03
2023-04-20T06:42:28.699Z,5.47
2023-04-20T06:44:56.384Z,4.40
2023-04-20T06:47:23.285Z,4.50
2023-04-20T06:49:50.108Z,5.20
2023-04-20T06:52:16.992Z,5.33
2023-04-20T06:54:43.945Z,5.00
2023-04-20T06:57:10.764Z,5.20
2023-04-20T06:59:37.560Z,5.20
2023-04-20T07:02:07.088Z,4.33
2023-04-20T07:04:34.035Z,4.40
2023-04-20T07:07:00.989Z,4.30
2023-04-20T07:09:28.069Z,4.73
2023-04-20T07:11:56.401Z,4.20
2023-04-20T07:14:23.359Z,4.63
2023-04-20T07:16:53.653Z,4.77
2023-04-20T07:19:20.684Z,4.30
2023-04-20T07:22:45.034Z,4.80
2023-04-20T07:25:11.886Z,4.83
2023-04-20T07:27:40.934Z,4.20
2023-04-20T07:30:09.042Z,5.07
2023-04-20T07:32:36.900Z,4.90
2023-04-20T07:35:04.483Z,4.77
2023-04-20T07:37:34.484Z,5.10
2023-04-20T07:40:01.539Z,4.57
2023-04-20T07:42:28.948Z,5.70
2023-04-20T07:44:55.743Z,5.27
2023-04-20T07:47:22.981Z,5.33
2023-04-20T07:49:49.909Z,4.93
2023-04-20T07:52:18.299Z,5.00
2023-04-20T07:54:46.063Z,5.40
2023-04-20T07:57:12.913Z,5.40
2023-04-20T07:59:40.821Z,5.40
2023-04-20T08:02:08.474Z,4.67
2023-04-20T08:04:38.347Z,5.00
2023-04-20T08:07:05.477Z,6.27
2023-04-20T08:09:32.273Z,6.00
2023-04-20T08:11:59.097Z,6.00
2023-04-20T08:14:26.161Z,5.40
2023-04-20T08:16:53.102Z,5.50
2023-04-20T08:19:19.946Z,5.20
2023-04-20T08:21:47.001Z,5.53
2023-04-20T08:24:14.126Z,5.67
2023-04-20T08:26:43.527Z,5.80
2023-04-20T08:29:10.546Z,5.63
2023-04-20T08:31:37.496Z,4.97
2023-04-20T08:34:06.478Z,4.97
2023-04-20T08:36:33.286Z,5.00
2023-04-20T08:39:11.974Z,5.47
2023-04-20T08:41:38.898Z,5.77
2023-04-20T08:44:07.351Z,5.50
2023-04-20T08:46:34.958Z,5.83
2023-04-20T08:49:05.135Z,5.10
2023-04-20T08:51:32.555Z,5.63
2023-04-20T08:54:06.503Z,6.33
2023-04-20T08:56:44.370Z,5.90
2023-04-20T08:59:12.866Z,5.97
2023-04-20T09:01:41.701Z,4.87
2023-04-20T09:04:20.361Z,5.67
2023-04-20T09:06:50.387Z,5.83
2023-04-20T09:09:18.758Z,5.65
2023-04-20T09:11:46.081Z,6.23
2023-04-20T09:14:15.023Z,5.30
2023-04-20T09:16:53.444Z,5.73
2023-04-20T09:19:24.757Z,5.40
2023-04-20T09:21:54.151Z,5.80
2023-04-20T09:24:22.714Z,5.75
2023-04-20T09:26:50.067Z,5.50
2023-04-20T09:29:21.730Z,5.50
2023-04-20T09:31:48.884Z,5.13
2023-04-20T09:34:16.137Z,5.32
2023-04-20T09:36:45.157Z,5.45
2023-04-20T09:39:23.273Z,5.78
2023-04-20T09:41:51.925Z,5.50
2023-04-20T09:44:19.994Z,6.05
2023-04-20T09:46:47.079Z,6.10
2023-04-20T09:49:15.183Z,5.32
2023-04-20T09:51:46.684Z,5.80
2023-04-20T09:54:15.113Z,5.90
2023-04-20T09:56:42.492Z,4.70
2023-04-20T09:59:09.179Z,6.53
2023-04-20T10:01:38.098Z,5.28
2023-04-20T10:04:09.751Z,5.63
2023-04-20T10:06:37.431Z,5.25
2023-04-20T10:09:06.257Z,5.38
2023-04-20T10:11:49.784Z,5.10
2023-04-20T10:14:25.047Z,4.80
2023-04-20T10:17:05.303Z,4.80
2023-04-20T10:19:42.124Z,4.78
2023-04-20T10:22:10.410Z,4.50
2023-04-20T10:24:40.560Z,5.20
2023-04-20T10:27:20.920Z,5.03
2023-04-20T10:29:47.971Z,5.22
2023-04-20T10:32:25.332Z,4.70
2023-04-20T10:35:06.495Z,5.55
2023-04-20T10:37:34.292Z,5.18
2023-04-20T10:40:01.932Z,6.18
2023-04-20T10:42:29.778Z,5.95
2023-04-20T10:44:56.682Z,5.40
2023-04-20T10:47:34.299Z,5.53
2023-04-20T10:50:12.156Z,5.10
2023-04-20T10:52:43.108Z,5.05
2023-04-20T10:55:26.303Z,6.15
2023-04-20T10:57:53.460Z,6.88
2023-04-20T11:00:28.153Z,6.40
2023-04-20T11:02:58.058Z,5.88
2023-04-20T11:05:30.356Z,5.80
2023-04-20T11:07:58.863Z,5.75
2023-04-20T11:10:40.726Z,5.97
2023-04-20T11:13:08.279Z,6.40
2023-04-20T11:15:35.515Z,5.72
2023-04-20T11:18:09.925Z,6.78
2023-04-20T11:20:37.102Z,5.40
2023-04-20T11:23:05.891Z,5.95
2023-04-20T11:25:32.652Z,5.30
2023-04-20T11:28:09.609Z,5.47
2023-04-20T11:30:42.693Z,5.07
2023-04-20T11:33:10.675Z,4.40
2023-04-20T11:35:38.721Z,5.13
2023-04-20T11:38:05.594Z,5.07
2023-04-20T11:40:32.410Z,4.78
2023-04-20T11:43:00.115Z,5.13
2023-04-20T11:45:28.052Z,5.32
2023-04-20T11:47:55.440Z,4.90
2023-04-20T11:50:22.981Z,3.60
2023-04-20T11:52:49.707Z,3.15
2023-04-20T11:55:16.521Z,3.10
2023-04-20T11:57:43.402Z,2.97
2023-04-20T12:00:10.635Z,3.00
2023-04-20T12:02:37.474Z,2.92
2023-04-20T12:05:04.745Z,3.38
2023-04-20T12:07:31.650Z,3.55
2023-04-20T12:09:58.333Z,3.30
2023-04-20T12:12:26.727Z,3.00
2023-04-20T12:14:53.449Z,3.50
2023-04-20T12:17:20.213Z,6.90
2023-04-20T12:19:47.834Z,3.38
2023-04-20T12:22:14.816Z,2.97
2023-04-20T12:24:41.554Z,2.70
2023-04-20T12:27:08.293Z,2.65
2023-04-20T12:29:35.126Z,3.30
2023-04-20T12:32:01.961Z,3.33
2023-04-20T12:34:28.859Z,2.97
2023-04-20T12:36:57.212Z,3.38
2023-04-20T12:39:24.390Z,3.15
2023-04-20T12:41:51.100Z,3.53
2023-04-20T12:44:18.119Z,3.10
2023-04-20T12:46:45.447Z,2.97
2023-04-20T12:49:12.299Z,3.45
2023-04-20T12:51:39.435Z,2.75
2023-04-20T12:54:06.137Z,2.60
2023-04-20T12:56:32.891Z,2.45
2023-04-20T12:58:59.767Z,2.63
2023-04-20T13:01:26.887Z,2.90
2023-04-20T13:03:54.012Z,2.60
2023-04-20T13:06:21.532Z,2.70
2023-04-20T13:08:48.818Z,2.80
2023-04-20T13:11:17.374Z,3.25
2023-04-20T13:13:44.227Z,3.20
2023-04-20T13:16:11.364Z,3.13
2023-04-20T13:18:38.432Z,3.13
2023-04-20T13:21:05.386Z,2.83
2023-04-20T13:23:32.147Z,3.33
2023-04-20T13:26:01.419Z,3.05
2023-04-20T13:28:28.278Z,3.17
2023-04-20T13:30:57.400Z,3.33
2023-04-20T13:33:24.259Z,3.10
2023-04-20T13:35:51.390Z,2.80
2023-04-20T13:38:18.380Z,2.88
2023-04-20T13:40:47.093Z,2.70
2023-04-20T13:43:13.932Z,2.10
2023-04-20T13:45:40.820Z,2.80
2023-04-20T13:48:07.592Z,2.65
2023-04-20T13:50:34.453Z,1.95
2023-04-20T13:53:03.164Z,2.50
2023-04-20T13:55:30.815Z,2.30
2023-04-20T13:57:57.640Z,2.28
2023-04-20T14:00:26.013Z,3.05
2023-04-20T14:02:52.954Z,2.60
2023-04-20T14:05:19.748Z,2.40
2023-04-20T14:07:46.517Z,2.45
2023-04-20T14:10:15.421Z,2.60
2023-04-20T14:12:42.255Z,2.53
2023-04-20T14:15:09.559Z,2.58
2023-04-20T14:17:36.444Z,2.42
2023-04-20T14:20:04.239Z,2.33
2023-04-20T14:22:35.810Z,2.50
2023-04-20T14:25:04.372Z,3.00
2023-04-20T14:27:31.409Z,2.67
2023-04-20T14:29:58.451Z,2.42
2023-04-20T14:32:25.313Z,2.60
2023-04-20T14:34:52.216Z,1.90
2023-04-20T14:37:19.135Z,2.20
2023-04-20T14:39:45.839Z,1.77
2023-04-20T14:42:13.375Z,2.00
2023-04-20T14:44:40.147Z,1.58
2023-04-20T14:47:06.951Z,1.52
2023-04-20T14:49:33.795Z,1.50
2023-04-20T14:52:00.520Z,2.05
2023-04-20T14:54:29.595Z,1.90
2023-04-20T14:56:56.431Z,1.77
2023-04-20T14:59:24.562Z,1.50
2023-04-20T15:02:01.607Z,1.73
2023-04-20T15:04:29.730Z,1.50
2023-04-20T15:06:56.649Z,1.38
2023-04-20T15:09:23.371Z,1.42
2023-04-20T15:11:50.219Z,1.63
2023-04-20T15:14:17.260Z,1.50
2023-04-20T15:16:44.326Z,1.40
2023-04-20T15:19:11.120Z,1.65
2023-04-20T15:21:37.954Z,1.60
2023-04-20T15:24:04.950Z,1.27
2023-04-20T15:26:31.745Z,1.30
2023-04-20T15:28:58.572Z,1.70
2023-04-20T15:31:25.814Z,1.90
2023-04-20T15:33:52.649Z,1.35
2023-04-20T15:36:20.521Z,1.70
2023-04-20T15:38:47.332Z,1.60
2023-04-20T15:41:16.240Z,2.05
2023-04-20T15:43:43.725Z,1.25
2023-04-20T15:46:11.048Z,1.63
2023-04-20T15:48:37.989Z,1.75
2023-04-20T15:51:05.119Z,1.67
2023-04-20T15:53:35.235Z,1.33
2023-04-20T15:56:02.094Z,1.75
2023-04-20T15:58:28.754Z,1.52
2023-04-20T16:00:55.458Z,1.50
2023-04-20T16:03:22.265Z,1.58
2023-04-20T16:05:49.055Z,1.30
2023-04-20T16:08:18.829Z,1.48
2023-04-20T16:10:45.615Z,1.48
2023-04-20T16:13:12.489Z,1.30
2023-04-20T16:15:39.334Z,1.50
2023-04-20T16:18:06.404Z,1.60
2023-04-20T16:20:33.073Z,1.95
2023-04-20T16:22:59.788Z,1.60
2023-04-20T16:25:27.152Z,1.40
2023-04-20T16:27:54.461Z,1.20
2023-04-20T16:30:21.264Z,1.30
2023-04-20T16:32:48.162Z,1.10
2023-04-20T16:35:14.888Z,1.00
2023-04-20T16:37:41.869Z,0.90
2023-04-20T16:40:11.975Z,1.20
2023-04-20T16:42:38.671Z,1.10
2023-04-20T16:45:05.943Z,1.00
2023-04-20T16:47:33.360Z,0.77
2023-04-20T16:50:00.209Z,0.82
2023-04-20T16:52:27.038Z,0.80
2023-04-20T16:54:53.729Z,0.75
2023-04-20T16:57:21.233Z,0.95
2023-04-20T16:59:47.995Z,0.95
2023-04-20T17:02:14.820Z,1.30
2023-04-20T17:04:41.598Z,1.10
2023-04-20T17:07:08.383Z,1.00
2023-04-20T17:09:35.470Z,1.17
2023-04-20T17:12:02.303Z,1.10
2023-04-20T17:14:30.249Z,0.93
2023-04-20T17:16:57.302Z,1.10
2023-04-20T17:19:24.170Z,1.30
2023-04-20T17:21:50.918Z,1.20
2023-04-20T17:24:17.910Z,1.20
2023-04-20T17:26:46.451Z,1.30
2023-04-20T17:29:13.690Z,1.13
2023-04-20T17:31:40.486Z,1.88
2023-04-20T17:34:07.369Z,1.27
2023-04-20T17:36:34.360Z,2.20
2023-04-20T17:39:01.223Z,2.42
2023-04-20T17:41:28.292Z,2.25
2023-04-20T17:43:55.064Z,1.77
2023-04-20T17:46:23.094Z,1.80
2023-04-20T17:48:49.937Z,1.58
2023-04-20T17:51:16.823Z,1.42
2023-04-20T17:53:43.714Z,1.73
2023-04-20T17:56:11.437Z,1.70
2023-04-20T17:58:38.194Z,1.95
2023-04-20T18:01:05.314Z,1.80
2023-04-20T18:03:32.363Z,1.75
2023-04-20T18:05:59.279Z,1.45
2023-04-20T18:08:26.005Z,2.80
2023-04-20T18:10:52.642Z,2.20
2023-04-20T18:13:19.337Z,2.05
2023-04-20T18:15:46.269Z,2.35
2023-04-20T18:18:13.032Z,2.80
2023-04-20T18:20:40.456Z,2.47
2023-04-20T18:23:07.497Z,2.38
2023-04-20T18:25:34.292Z,2.75
2023-04-20T18:28:00.989Z,2.90
2023-04-20T18:30:27.727Z,2.20
2023-04-20T18:32:54.606Z,2.63
2023-04-20T18:35:21.511Z,3.05
2023-04-20T18:37:48.217Z,2.80
2023-04-20T18:40:16.448Z,2.78
2023-04-20T18:42:43.580Z,2.80
2023-04-20T18:45:12.276Z,3.00
2023-04-20T18:47:39.368Z,2.70
2023-04-20T18:50:06.723Z,3.10
2023-04-20T18:52:34.097Z,3.05
2023-04-20T18:55:01.426Z,3.72
2023-04-20T18:57:28.918Z,3.55
2023-04-20T18:59:56.498Z,3.90
2023-04-20T19:02:23.520Z,3.10
2023-04-20T19:04:53.246Z,3.90
2023-04-20T19:07:20.805Z,3.72
2023-04-20T19:09:47.502Z,3.50
2023-04-20T19:12:14.224Z,3.37
2023-04-20T19:14:41.002Z,3.40
2023-04-20T19:17:08.143Z,3.55
2023-04-20T19:19:35.025Z,4.17
2023-04-20T19:22:03.519Z,3.40
2023-04-20T19:24:32.141Z,3.60
2023-04-20T19:26:59.341Z,3.47
2023-04-20T19:29:26.094Z,3.93
2023-04-20T19:31:52.854Z,3.90
2023-04-20T19:34:20.623Z,4.37
2023-04-20T19:36:47.571Z,4.83
2023-04-20T19:39:14.313Z,5.43
2023-04-20T19:41:41.062Z,5.47
2023-04-20T19:44:09.887Z,95.57
2023-04-20T19:46:38.525Z,81.60
2023-04-20T19:49:05.631Z,14.93
2023-04-20T19:51:32.991Z,9.27
2023-04-20T19:54:01.026Z,9.27
2023-04-20T19:56:27.949Z,7.30
2023-04-20T19:58:54.625Z,6.70
2023-04-20T20:01:21.428Z,5.93
2023-04-20T20:03:48.457Z,6.40
2023-04-20T20:06:15.782Z,5.40
2023-04-20T20:08:42.748Z,5.50
2023-04-20T20:11:09.558Z,5.30
2023-04-20T20:13:36.297Z,6.37
2023-04-20T20:16:04.115Z,6.07
2023-04-20T20:18:31.147Z,5.50
2023-04-20T20:20:57.989Z,5.00
2023-04-20T20:23:24.755Z,4.97
2023-04-20T20:25:51.958Z,5.20
2023-04-20T20:28:18.746Z,5.07
2023-04-20T20:30:45.726Z,5.13
2023-04-20T20:33:12.864Z,5.13
2023-04-20T20:35:39.979Z,5.10
2023-04-20T20:38:07.826Z,5.40
2023-04-20T20:40:35.606Z,5.50
2023-04-20T20:43:03.693Z,5.60
2023-04-20T20:45:31.790Z,5.50
2023-04-20T20:47:59.040Z,5.47
2023-04-20T20:50:27.914Z,5.63
2023-04-20T20:52:54.754Z,6.30
2023-04-20T20:55:21.604Z,6.87
2023-04-20T20:57:48.372Z,6.30
2023-04-20T21:00:16.149Z,5.90
2023-04-20T21:02:43.152Z,6.10
2023-04-20T21:05:10.517Z,6.33
2023-04-20T21:07:37.400Z,6.53
2023-04-20T21:10:04.555Z,7.07
2023-04-20T21:12:31.328Z,6.87
2023-04-20T21:14:58.052Z,6.67
2023-04-20T21:17:25.935Z,6.73
2023-04-20T21:19:52.699Z,7.63
2023-04-20T21:22:21.293Z,6.83
2023-04-20T21:24:48.254Z,6.40
2023-04-20T21:27:15.018Z,6.97
2023-04-20T21:29:41.799Z,7.07
2023-04-20T21:32:09.763Z,7.17
2023-04-20T21:34:36.532Z,7.93
2023-04-20T21:37:06.129Z,8.10
2023-04-20T21:39:33.158Z,7.47
2023-04-20T21:42:00.475Z,6.77
2023-04-20T21:44:27.468Z,7.63
2023-04-20T21:46:54.283Z,7.00
2023-04-20T21:49:21.198Z,7.57
2023-04-20T21:51:47.957Z,7.20
2023-04-20T21:54:14.942Z,7.33
2023-04-20T21:56:41.817Z,7.67
2023-04-20T21:59:08.603Z,7.63
2023-04-20T22:01:35.634Z,7.37
2023-04-20T22:04:02.610Z,7.33
2023-04-20T22:06:29.619Z,6.83
2023-04-20T22:08:56.557Z,7.40
2023-04-20T22:11:23.426Z,6.17
2023-04-20T22:13:50.547Z,7.20
2023-04-20T22:16:18.017Z,7.27
2023-04-20T22:18:44.773Z,7.60
2023-04-20T22:21:11.525Z,8.47
2023-04-20T22:23:38.216Z,8.30
2023-04-20T22:26:05.144Z,7.97
2023-04-20T22:28:32.242Z,8.27
2023-04-20T22:30:58.973Z,9.10
2023-04-20T22:33:25.743Z,9.10
2023-04-20T22:35:52.835Z,9.57
2023-04-20T22:38:20.079Z,9.40
2023-04-20T22:40:46.814Z,9.40
2023-04-20T22:43:13.741Z,9.90
2023-04-20T22:45:40.765Z,9.87
2023-04-20T22:48:07.758Z,10.60
2023-04-20T22:50:35.192Z,10.40
2023-04-20T22:53:01.932Z,10.27
2023-04-20T22:55:28.660Z,10.67
2023-04-20T22:57:55.468Z,11.13
2023-04-20T23:00:22.278Z,10.40
2023-04-20T23:02:49.618Z,11.03
2023-04-20T23:05:21.065Z,11.77
2023-04-20T23:07:47.994Z,11.70
2023-04-20T23:10:17.664Z,12.03
2023-04-20T23:12:47.184Z,12.67
2023-04-20T23:15:14.102Z,11.90
2023-04-20T23:17:40.901Z,11.47
2023-04-20T23:20:13.673Z,11.60
2023-04-20T23:22:40.743Z,11.37
2023-04-20T23:25:09.529Z,11.90
2023-04-20T23:27:36.310Z,10.83
2023-04-20T23:30:03.160Z,11.37
2023-04-20T23:32:29.958Z,11.50
2023-04-20T23:34:56.711Z,10.97
2023-04-20T23:37:23.438Z,10.93
2023-04-20T23:39:50.166Z,10.60
2023-04-20T23:42:16.896Z,11.10
2023-04-20T23:44:43.613Z,11.53
2023-04-20T23:47:10.403Z,11.57
2023-04-20T23:49:37.155Z,11.90
2023-04-20T23:52:03.950Z,11.80
2023-04-20T23:54:32.618Z,11.67
2023-04-20T23:57:00.035Z,12.03
2023-04-20T23:59:26.846Z,12.03
